TAF Text Data
IDs:
Format:
Raw Decoded Include METAR

Data at: 1412 UTC 27 Nov 2021

KBDL 271123Z 2712/2818 30012G22KT P6SM SCT200
  FM271800 30015G24KT P6SM FEW250
  FM280000 29009KT P6SM FEW250
  FM280400 28005KT P6SM FEW250
  FM281200 21003KT P6SM BKN050